createdAt,value
2019-03-26T16:43:56.430Z,32.25
2019-03-26T16:44:56.193Z,32.42
2019-03-26T16:45:56.226Z,32.23
2019-03-26T16:46:56.203Z,32.51
2019-03-26T16:47:56.196Z,32.62
2019-03-26T16:48:56.274Z,32.55
2019-03-26T16:49:56.197Z,32.50
2019-03-26T16:50:56.223Z,32.73
2019-03-26T16:51:56.229Z,32.51
2019-03-26T16:52:56.226Z,32.60
2019-03-26T16:53:56.227Z,33.32
2019-03-26T16:54:56.260Z,32.96
2019-03-26T16:55:56.191Z,33.24
2019-03-26T16:56:56.232Z,33.41
2019-03-26T16:57:56.252Z,33.41
2019-03-26T16:58:56.234Z,33.29
2019-03-26T16:59:56.224Z,33.85
2019-03-26T17:00:56.282Z,33.51
2019-03-26T17:01:56.225Z,34.19
2019-03-26T17:02:56.233Z,34.40
2019-03-26T17:03:56.273Z,33.98
2019-03-26T17:04:56.301Z,33.81
2019-03-26T17:05:56.244Z,34.14
2019-03-26T17:06:56.253Z,34.34
2019-03-26T17:07:56.211Z,34.15
2019-03-26T17:08:56.257Z,33.87
2019-03-26T17:09:56.240Z,33.96
2019-03-26T17:10:56.221Z,33.96
2019-03-26T17:12:03.002Z,33.98
2019-03-26T17:12:56.274Z,33.84
2019-03-26T17:13:56.254Z,34.09
2019-03-26T17:14:56.225Z,33.87
2019-03-26T17:15:56.287Z,33.96
2019-03-26T17:16:56.225Z,33.93
2019-03-26T17:17:56.236Z,34.00
2019-03-26T17:18:56.263Z,33.96
2019-03-26T17:19:56.220Z,34.34
2019-03-26T17:20:56.240Z,34.22
2019-03-26T17:21:56.247Z,34.52
2019-03-26T17:22:56.242Z,34.59
2019-03-26T17:23:56.261Z,34.61
2019-03-26T17:24:56.260Z,34.72
2019-03-26T17:25:56.244Z,34.55
2019-03-26T17:26:56.246Z,34.49
2019-03-26T17:27:56.257Z,34.26
2019-03-26T17:28:56.248Z,34.36
2019-03-26T17:29:56.238Z,34.43
2019-03-26T17:30:56.289Z,34.78
2019-03-26T17:31:56.239Z,35.97
2019-03-26T17:32:56.241Z,37.07
2019-03-26T17:33:56.288Z,37.62
2019-03-26T17:34:56.247Z,39.13
2019-03-26T17:35:56.260Z,37.82
2019-03-26T17:36:56.299Z,38.21
2019-03-26T17:37:59.942Z,38.39
2019-03-26T17:38:56.265Z,38.80
2019-03-26T17:39:56.291Z,38.83
2019-03-26T17:40:56.249Z,38.94
2019-03-26T17:41:56.360Z,39.60
2019-03-26T17:42:56.366Z,41.03
2019-03-26T17:43:56.279Z,39.69
2019-03-26T17:44:58.353Z,39.04
2019-03-26T17:45:56.291Z,38.53
2019-03-26T17:46:56.237Z,38.75
2019-03-26T17:47:56.516Z,38.37
2019-03-26T17:48:56.286Z,38.18
2019-03-26T17:49:56.468Z,38.28
2019-03-26T17:50:56.244Z,37.82
2019-03-26T17:51:56.282Z,37.57
2019-03-26T17:52:56.251Z,37.46
2019-03-26T17:53:56.300Z,39.71
2019-03-26T17:54:56.310Z,40.72
2019-03-26T17:55:56.263Z,40.80
2019-03-26T17:56:56.280Z,41.04
2019-03-26T17:57:56.359Z,40.94
2019-03-26T17:58:56.244Z,41.49
2019-03-26T17:59:56.295Z,41.73
2019-03-26T18:00:56.301Z,41.91
2019-03-26T18:01:56.279Z,42.72
2019-03-26T18:02:56.254Z,42.68
2019-03-26T18:03:56.286Z,43.35
2019-03-26T18:04:56.289Z,43.35
2019-03-26T18:05:56.294Z,43.54
2019-03-26T18:06:56.285Z,43.73
2019-03-26T18:07:56.275Z,44.39
2019-03-26T18:08:56.276Z,44.94
2019-03-26T18:09:56.340Z,45.24
2019-03-26T18:10:56.287Z,44.59
2019-03-26T18:11:56.265Z,44.59
2019-03-26T18:12:56.313Z,44.81
2019-03-26T18:13:56.286Z,44.14
2019-03-26T18:14:56.305Z,44.15
2019-03-26T18:15:56.308Z,43.70
2019-03-26T18:16:56.286Z,43.28
2019-03-26T18:17:56.290Z,43.45
2019-03-26T18:18:56.299Z,43.24
2019-03-26T18:19:56.299Z,43.21
2019-03-26T18:20:56.302Z,42.70
2019-03-26T18:21:56.297Z,42.53
2019-03-26T18:22:56.284Z,43.07
2019-03-26T18:23:56.259Z,42.83
2019-03-26T18:24:56.331Z,42.56
2019-03-26T18:25:56.283Z,43.45
2019-03-26T18:26:56.270Z,45.13
2019-03-26T18:27:56.319Z,45.93
2019-03-26T18:28:56.326Z,45.24
2019-03-26T18:29:56.322Z,46.39
2019-03-26T18:30:56.310Z,46.22
2019-03-26T18:31:56.294Z,45.05
2019-03-26T18:32:56.303Z,44.83
2019-03-26T18:33:56.343Z,44.46
2019-03-26T18:34:56.357Z,43.62
2019-03-26T18:35:56.440Z,43.89
2019-03-26T18:36:56.425Z,43.57
2019-03-26T18:37:56.366Z,43.35
2019-03-26T18:38:56.399Z,43.31
2019-03-26T18:39:56.421Z,43.33
2019-03-26T18:40:56.377Z,43.58
2019-03-26T18:41:56.410Z,43.51
2019-03-26T18:42:56.447Z,43.22
2019-03-26T18:43:56.417Z,43.50
2019-03-26T18:44:56.485Z,43.26
2019-03-26T18:45:56.538Z,43.51
2019-03-26T18:46:56.523Z,43.39
2019-03-26T18:47:56.523Z,43.43
2019-03-26T18:48:56.481Z,43.67
2019-03-26T18:49:56.499Z,43.73
2019-03-26T18:50:56.492Z,43.52
2019-03-26T18:51:56.561Z,44.19
2019-03-26T18:52:56.542Z,45.88
2019-03-26T18:53:56.571Z,44.34
2019-03-26T18:54:56.676Z,44.11
2019-03-26T18:55:56.606Z,44.02
2019-03-26T18:56:56.646Z,44.99
2019-03-26T18:57:56.728Z,45.30
2019-03-26T18:58:56.636Z,44.88
2019-03-26T18:59:56.631Z,44.70
2019-03-26T19:00:56.651Z,45.13
2019-03-26T19:01:56.611Z,45.69
2019-03-26T19:02:56.658Z,44.97
2019-03-26T19:03:56.767Z,45.16
2019-03-26T19:04:56.681Z,46.30
2019-03-26T19:05:56.704Z,45.69
2019-03-26T19:06:56.745Z,44.75
2019-03-26T19:07:56.770Z,45.01
2019-03-26T19:08:56.780Z,45.40
2019-03-26T19:09:56.832Z,45.12
2019-03-26T19:10:56.748Z,44.38
2019-03-26T19:11:56.746Z,44.20
2019-03-26T19:12:57.350Z,44.50
2019-03-26T19:13:56.810Z,44.46
2019-03-26T19:14:56.789Z,44.30
2019-03-26T19:15:56.830Z,44.68
2019-03-26T19:16:56.827Z,44.29
2019-03-26T19:17:56.829Z,44.01
2019-03-26T19:18:56.915Z,43.86
2019-03-26T19:19:58.427Z,44.07
2019-03-26T19:21:02.438Z,44.38
2019-03-26T19:21:56.894Z,44.13
2019-03-26T19:22:56.887Z,43.91
2019-03-26T19:24:03.864Z,44.24
2019-03-26T19:24:56.926Z,44.38
2019-03-26T19:25:56.893Z,44.10
2019-03-26T19:26:56.912Z,43.89
2019-03-26T19:27:56.956Z,44.25
2019-03-26T19:28:56.895Z,44.31
2019-03-26T19:29:56.894Z,44.45
2019-03-26T19:30:56.921Z,44.59
2019-03-26T19:31:56.892Z,44.88
2019-03-26T19:32:57.869Z,44.77
2019-03-26T19:33:56.962Z,45.15
2019-03-26T19:34:56.930Z,44.75
2019-03-26T19:35:56.896Z,45.08
2019-03-26T19:36:56.944Z,44.46
2019-03-26T19:37:56.918Z,44.53
2019-03-26T19:38:56.949Z,44.22
2019-03-26T19:39:56.945Z,44.33
2019-03-26T19:40:56.901Z,44.78
2019-03-26T19:41:56.911Z,44.26
2019-03-26T19:43:09.744Z,44.14
2019-03-26T19:43:56.912Z,44.19
2019-03-26T19:44:56.925Z,44.52
2019-03-26T19:45:56.960Z,44.55
2019-03-26T19:46:56.918Z,44.10
2019-03-26T19:47:56.931Z,44.17
2019-03-26T19:48:56.956Z,44.10
2019-03-26T19:49:56.899Z,44.79
2019-03-26T19:50:56.943Z,45.38
2019-03-26T19:51:56.921Z,45.65
2019-03-26T19:52:56.920Z,44.57
2019-03-26T19:53:56.913Z,44.03
2019-03-26T19:54:56.936Z,44.04
2019-03-26T19:55:56.935Z,44.05
2019-03-26T19:56:56.954Z,44.25
2019-03-26T19:57:56.949Z,44.07
2019-03-26T19:58:56.908Z,44.41
2019-03-26T19:59:56.931Z,44.45
2019-03-26T20:00:56.957Z,44.38
2019-03-26T20:01:56.949Z,44.26
2019-03-26T20:02:56.926Z,44.39
2019-03-26T20:03:56.997Z,44.07
2019-03-26T20:04:56.928Z,43.84
2019-03-26T20:05:56.941Z,43.68
2019-03-26T20:06:56.999Z,44.31
2019-03-26T20:07:56.921Z,43.94
2019-03-26T20:08:56.962Z,42.88
2019-03-26T20:09:56.966Z,43.37
2019-03-26T20:10:56.920Z,42.90
2019-03-26T20:11:56.960Z,42.53
2019-03-26T20:12:56.956Z,41.95
2019-03-26T20:13:56.954Z,41.59
2019-03-26T20:14:56.927Z,40.77
2019-03-26T20:15:56.950Z,41.26
2019-03-26T20:16:56.962Z,41.99
2019-03-26T20:17:56.955Z,42.03
2019-03-26T20:18:56.982Z,41.88
2019-03-26T20:19:56.955Z,41.52
2019-03-26T20:20:56.930Z,41.49
2019-03-26T20:21:56.974Z,40.08
2019-03-26T20:22:56.953Z,39.08
2019-03-26T20:23:56.941Z,39.03
2019-03-26T20:24:56.968Z,37.94
2019-03-26T20:25:56.933Z,37.90
2019-03-26T20:26:56.958Z,37.59
2019-03-26T20:27:56.975Z,37.07
2019-03-26T20:28:56.944Z,36.96
2019-03-26T20:29:56.942Z,36.87
2019-03-26T20:30:56.974Z,37.18
2019-03-26T20:31:56.932Z,36.64
2019-03-26T20:32:56.959Z,36.70
2019-03-26T20:33:57.045Z,36.66
2019-03-26T20:34:56.943Z,36.39
2019-03-26T20:35:56.931Z,36.37
2019-03-26T20:36:56.980Z,36.53
2019-03-26T20:37:57.041Z,36.59
2019-03-26T20:38:57.016Z,36.23
2019-03-26T20:39:56.972Z,36.09
2019-03-26T20:40:56.950Z,36.14
2019-03-26T20:41:56.950Z,36.04
2019-03-26T20:42:56.985Z,36.18
2019-03-26T20:43:56.979Z,37.08
2019-03-26T20:44:56.964Z,36.55
2019-03-26T20:45:56.993Z,36.30
2019-03-26T20:46:56.957Z,36.42
2019-03-26T20:47:56.973Z,36.63
2019-03-26T20:48:57.006Z,37.58
2019-03-26T20:49:56.979Z,37.10
2019-03-26T20:50:57.387Z,37.74
2019-03-26T20:51:56.999Z,37.67
2019-03-26T20:52:56.934Z,37.27
2019-03-26T20:53:56.955Z,37.47
2019-03-26T20:54:57.001Z,37.19
2019-03-26T20:55:56.951Z,37.93
2019-03-26T20:56:56.942Z,37.55
2019-03-26T20:57:56.993Z,37.55
2019-03-26T20:58:56.958Z,37.53
2019-03-26T20:59:57.002Z,37.60
2019-03-26T21:00:56.995Z,38.01
2019-03-26T21:01:56.959Z,39.04
2019-03-26T21:02:56.966Z,39.33
2019-03-26T21:03:57.011Z,40.50
2019-03-26T21:04:56.972Z,39.83
2019-03-26T21:05:56.954Z,39.82
2019-03-26T21:06:57.014Z,39.52
2019-03-26T21:07:56.977Z,39.06
2019-03-26T21:08:56.967Z,39.19
2019-03-26T21:09:57.008Z,39.33
2019-03-26T21:10:56.967Z,39.04
2019-03-26T21:11:56.988Z,38.78
2019-03-26T21:12:56.947Z,38.65
2019-03-26T21:13:56.965Z,38.48
2019-03-26T21:14:56.999Z,38.31
2019-03-26T21:15:57.713Z,38.47
2019-03-26T21:16:56.993Z,38.99
2019-03-26T21:17:56.984Z,38.99
2019-03-26T21:18:57.011Z,38.57
2019-03-26T21:19:57.014Z,38.72
2019-03-26T21:20:57.059Z,38.54
2019-03-26T21:21:57.045Z,38.54
2019-03-26T21:22:56.970Z,38.67
2019-03-26T21:23:57.003Z,38.16
2019-03-26T21:24:56.974Z,37.91
2019-03-26T21:25:57.001Z,37.84
2019-03-26T21:26:56.978Z,38.12
2019-03-26T21:27:57.033Z,38.32
2019-03-26T21:28:57.009Z,38.20
2019-03-26T21:30:09.713Z,38.38
2019-03-26T21:30:57.046Z,38.51
2019-03-26T21:31:56.995Z,38.50
2019-03-26T21:32:57.008Z,38.46
2019-03-26T21:33:57.044Z,38.60
2019-03-26T21:34:57.051Z,38.44
2019-03-26T21:35:56.991Z,38.37
2019-03-26T21:36:57.021Z,38.35
2019-03-26T21:37:56.981Z,38.13
2019-03-26T21:38:56.997Z,38.26
2019-03-26T21:39:57.038Z,38.33
2019-03-26T21:40:57.016Z,38.26
2019-03-26T21:41:56.999Z,38.20
2019-03-26T21:42:57.019Z,38.08
2019-03-26T21:44:04.216Z,38.36
2019-03-26T21:44:57.028Z,38.11
2019-03-26T21:45:57.057Z,37.99
2019-03-26T21:46:56.997Z,37.87
2019-03-26T21:47:57.011Z,37.98
2019-03-26T21:48:57.043Z,37.81
2019-03-26T21:49:56.991Z,37.57
2019-03-26T21:50:56.996Z,37.99
2019-03-26T21:51:57.041Z,37.92
2019-03-26T21:52:57.018Z,38.11
2019-03-26T21:53:57.039Z,37.72
2019-03-26T21:54:57.028Z,37.63
2019-03-26T21:56:06.190Z,37.87
2019-03-26T21:56:57.029Z,37.40
2019-03-26T21:57:57.095Z,37.04
2019-03-26T21:58:57.022Z,38.57
2019-03-26T21:59:56.991Z,37.26
2019-03-26T22:00:57.034Z,37.11
2019-03-26T22:01:56.989Z,38.73
2019-03-26T22:02:56.988Z,39.29
2019-03-26T22:03:57.068Z,37.51
2019-03-26T22:04:56.998Z,36.85
2019-03-26T22:05:57.029Z,36.86
2019-03-26T22:06:57.043Z,38.50
2019-03-26T22:07:57.002Z,38.46
2019-03-26T22:08:57.013Z,39.07
2019-03-26T22:09:57.042Z,39.08
2019-03-26T22:10:57.012Z,39.63
2019-03-26T22:11:57.016Z,38.98
2019-03-26T22:12:57.034Z,39.54
2019-03-26T22:13:57.023Z,38.62
2019-03-26T22:14:57.015Z,38.64
2019-03-26T22:15:57.058Z,39.89
2019-03-26T22:16:57.039Z,39.83
2019-03-26T22:17:57.022Z,39.30
2019-03-26T22:18:57.025Z,38.83
2019-03-26T22:19:57.000Z,38.25
2019-03-26T22:20:57.007Z,38.06
2019-03-26T22:21:57.060Z,38.13
2019-03-26T22:22:57.196Z,37.73
2019-03-26T22:23:57.053Z,37.51
2019-03-26T22:24:57.045Z,37.96
2019-03-26T22:25:57.045Z,37.79
2019-03-26T22:26:57.044Z,37.88
2019-03-26T22:27:57.073Z,38.31
2019-03-26T22:28:57.050Z,37.80
2019-03-26T22:29:57.051Z,38.38
2019-03-26T22:30:57.063Z,39.11
2019-03-26T22:31:57.018Z,39.44
2019-03-26T22:32:57.041Z,40.04
2019-03-26T22:33:57.081Z,40.89
2019-03-26T22:34:57.053Z,41.14
2019-03-26T22:35:57.020Z,40.80
2019-03-26T22:36:57.082Z,40.38
2019-03-26T22:37:57.020Z,41.63
2019-03-26T22:38:57.051Z,41.85
2019-03-26T22:39:57.084Z,41.70
2019-03-26T22:40:57.051Z,41.57
2019-03-26T22:41:57.071Z,41.99
2019-03-26T22:42:57.081Z,40.79
2019-03-26T22:43:57.022Z,41.48
2019-03-26T22:44:57.019Z,41.05
2019-03-26T22:45:57.078Z,41.09
2019-03-26T22:46:57.063Z,41.20
2019-03-26T22:47:57.046Z,42.29
2019-03-26T22:48:57.092Z,44.33
2019-03-26T22:49:57.344Z,45.48
2019-03-26T22:50:57.073Z,44.81
2019-03-26T22:51:57.094Z,44.56
2019-03-26T22:52:57.062Z,44.68
2019-03-26T22:53:57.049Z,45.96
2019-03-26T22:54:57.068Z,46.39
2019-03-26T22:55:57.051Z,44.80
2019-03-26T22:56:57.022Z,44.99
2019-03-26T22:57:57.073Z,43.91
2019-03-26T22:58:57.053Z,44.17
2019-03-26T22:59:57.077Z,44.60
2019-03-26T23:00:57.056Z,44.84
2019-03-26T23:01:57.057Z,44.25
2019-03-26T23:02:57.051Z,45.20
2019-03-26T23:03:57.084Z,44.39
2019-03-26T23:04:57.081Z,45.17
2019-03-26T23:05:57.063Z,44.76
2019-03-26T23:06:57.087Z,44.42
2019-03-26T23:07:57.024Z,46.91
2019-03-26T23:08:57.027Z,47.42
2019-03-26T23:09:57.076Z,46.21
2019-03-26T23:10:57.063Z,43.56
2019-03-26T23:11:57.062Z,45.81
2019-03-26T23:12:57.132Z,45.19
2019-03-26T23:13:57.067Z,42.97
2019-03-26T23:14:57.053Z,43.86
2019-03-26T23:15:57.092Z,42.16
2019-03-26T23:16:57.051Z,43.39
2019-03-26T23:17:57.050Z,43.95
2019-03-26T23:18:57.090Z,44.07
2019-03-26T23:19:57.052Z,45.27
2019-03-26T23:20:57.068Z,45.27
2019-03-26T23:21:57.098Z,45.12
2019-03-26T23:22:57.089Z,45.41
2019-03-26T23:23:57.039Z,45.84
2019-03-26T23:24:57.090Z,45.37
2019-03-26T23:25:57.130Z,45.00
2019-03-26T23:26:57.090Z,45.45
2019-03-26T23:27:57.083Z,44.40
2019-03-26T23:28:57.114Z,44.20
2019-03-26T23:29:57.050Z,44.16
2019-03-26T23:30:57.155Z,44.22
2019-03-26T23:31:57.066Z,44.33
2019-03-26T23:32:57.068Z,44.16
2019-03-26T23:33:57.110Z,44.65
2019-03-26T23:34:57.072Z,44.73
2019-03-26T23:35:57.108Z,44.26
2019-03-26T23:36:57.109Z,43.94
2019-03-26T23:37:57.052Z,43.24
2019-03-26T23:38:57.091Z,43.37
2019-03-26T23:39:57.113Z,43.33
2019-03-26T23:40:57.090Z,42.52
2019-03-26T23:41:57.106Z,42.55
2019-03-26T23:42:57.099Z,41.79
2019-03-26T23:43:57.048Z,41.06
2019-03-26T23:44:58.567Z,40.87
2019-03-26T23:45:57.118Z,40.77
2019-03-26T23:46:57.087Z,40.93
2019-03-26T23:47:57.105Z,40.40
2019-03-26T23:48:57.094Z,40.14
2019-03-26T23:49:57.069Z,39.98
2019-03-26T23:50:57.084Z,39.65
2019-03-26T23:51:57.133Z,39.54
2019-03-26T23:52:57.077Z,39.28
2019-03-26T23:53:57.087Z,39.58
2019-03-26T23:54:57.120Z,39.18
2019-03-26T23:55:57.073Z,39.12
2019-03-26T23:56:57.095Z,38.90
2019-03-26T23:57:57.106Z,38.77
2019-03-26T23:58:57.074Z,38.69
2019-03-26T23:59:57.081Z,38.65
